Svendsen Senior — LK2937 — position and weather

sailwx.info

Track history (hours):
 
Tides and Currents Weather Stations Pressure Air Temp Water Temp Dewpoint Dewpoint Depression Visibility Wind Speed Wind Dir Waves Ship Positions

Svendsen Senior

Last reported at 2018-Jul-10 10:13 UTC. Time now 2018-Jul-18 23:32 UTC.
Position N 67°21' E 013°44'.
Warning: this ship's position is 8 days out of date.

Length 15 m.

Type: Fishing. MMSI: 257142520.

Date/timePositionNaut miles runAvg speedWind from/ knotsBaromVisibWave heightAir tempDewpointWater temp
2018-Jul-10 10:13N 67°21' E 013°44'2 6.8
2018-Jul-10 09:58N 67°20' E 013°45'5 7.0
2018-Jul-10 09:14N 67°15' E 013°49'2 7.3
2018-Jul-10 09:00N 67°13' E 013°50'3 6.9
2018-Jul-10 08:31N 67°11' E 013°56'2 4.3
2018-Jul-10 07:58N 67°09' E 013°60'0 0.1
2018-Jul-10 07:30N 67°09' E 013°60'0 0.3
2018-Jul-10 06:59N 67°09' E 013°59'0 0.7
2018-Jul-10 06:30N 67°09' E 014°00'1 0.6
2018-Jul-10 05:18N 67°08' E 013°58'0 0.2
2018-Jul-10 05:00N 67°08' E 013°58'0 0.1
2018-Jul-10 00:18N 67°08' E 013°58'2 5.6
2018-Jul-10 00:00N 67°09' E 014°01'3 6.0
2018-Jul-09 23:30N 67°10' E 014°07'1 2.8
2018-Jul-09 23:00N 67°11' E 014°11'1 1.9
2018-Jul-09 22:30N 67°11' E 014°13'0 0.5
2018-Jul-09 21:59N 67°11' E 014°13'1 2.2
2018-Jul-09 21:30N 67°11' E 014°11'1 1.2
2018-Jul-09 21:00N 67°11' E 014°12'2 4.4
2018-Jul-09 20:30N 67°10' E 014°07'2 4.5
2018-Jul-09 20:00N 67°10' E 014°01'2 3.9
2018-Jul-09 19:30N 67°08' E 014°01'3 5.4
2018-Jul-09 18:57N 67°05' E 014°04'3 4.2
2018-Jul-09 18:15N 67°07' E 013°58'1 4.3
2018-Jul-09 18:00N 67°06' E 013°56'3 6.5
2018-Jul-09 17:30N 67°03' E 013°53'3 6.4
2018-Jul-09 16:58N 66°60' E 013°50'2 5.2
2018-Jul-09 16:30N 66°59' E 013°44'2 5.0
2018-Jul-09 16:00N 66°57' E 013°40'2 3.1
2018-Jul-09 15:28N 66°58' E 013°36'1 1.0
2018-Jul-09 14:58N 66°58' E 013°38'1 2.4
2018-Jul-09 14:23N 66°57' E 013°41'2 4.4
2018-Jul-09 14:00N 66°58' E 013°45'0 0.1
2018-Jul-09 06:52N 66°58' E 013°46'1 2.2
2018-Jul-09 06:31N 66°57' E 013°44'1 1.7
2018-Jul-09 05:52N 66°58' E 013°42'1 2.0
2018-Jul-09 05:25N 66°57' E 013°44'13 1.5
2018-Jul-08 20:40N 67°09' E 013°59'0 0.0
2018-Jul-08 20:16N 67°09' E 013°59'1 1.0
2018-Jul-08 19:07N 67°10' E 013°58'1 5.7
2018-Jul-08 19:00N 67°10' E 013°59'1 0.4
2018-Jul-08 16:14N 67°10' E 014°02'0 0.7
2018-Jul-08 16:00N 67°10' E 014°01'0 0.1
2018-Jul-08 15:29N 67°10' E 014°01'1 2.6
2018-Jul-08 15:01N 67°09' E 014°00'2 0.0
2018-Jul-06 15:29N 67°07' E 013°57'0 0.5
2018-Jul-06 14:59N 67°07' E 013°57'0 0.8
2018-Jul-06 14:30N 67°07' E 013°57'0 0.7
2018-Jul-06 13:53N 67°07' E 013°56'1 0.8
2018-Jul-06 13:13N 67°07' E 013°57'1 1.8
2018-Jul-06 12:36N 67°08' E 013°58'0 4.2
2018-Jul-06 12:30N 67°08' E 013°59'0 0.0
2018-Jul-06 02:28N 67°08' E 013°58'0 0.0
2018-Jul-05 23:35N 67°08' E 013°58'0 0.0
2018-Jul-05 23:22N 67°08' E 013°58'0 0.0
2018-Jul-05 22:58N 67°08' E 013°58'0 0.0
2018-Jul-05 22:28N 67°08' E 013°58'0 0.0
2018-Jul-05 13:16N 67°08' E 013°58'0 0.0
2018-Jul-05 12:58N 67°08' E 013°58'0 0.0
2018-Jul-05 11:23N 67°08' E 013°58'1 1.4
2018-Jul-05 11:00N 67°08' E 013°58'0 0.7
2018-Jul-05 10:30N 67°08' E 013°58'2 4.9
2018-Jul-05 10:00N 67°05' E 013°60'2 4.7
2018-Jul-05 09:30N 67°03' E 014°01'2 3.2
2018-Jul-05 08:59N 67°03' E 013°56'5 5.6
2018-Jul-05 08:10N 67°02' E 013°45'1 6.3
2018-Jul-05 07:59N 67°02' E 013°43'3 5.7
2018-Jul-05 07:29N 67°00' E 013°37'3 5.3
2018-Jul-05 06:56N 66°58' E 013°32'2 1.9
2018-Jul-05 05:45N 66°56' E 013°31'0 0.3
2018-Jul-05 05:20N 66°56' E 013°31'1 1.1
2018-Jul-05 04:21N 66°55' E 013°31'1 0.4
2018-Jul-05 02:00N 66°54' E 013°32'2 0.3
2018-Jul-04 19:22N 66°56' E 013°31'2 0.1
2018-Jul-03 19:07N 66°57' E 013°29'1 5.8
2018-Jul-03 18:59N 66°58' E 013°30'3 5.9
2018-Jul-03 18:28N 66°57' E 013°38'2 3.0
2018-Jul-03 17:58N 66°58' E 013°34'2 0.1
2018-Jul-02 18:20N 66°57' E 013°29'0 0.1
2018-Jul-02 16:48N 66°57' E 013°29'1 2.5
2018-Jul-02 16:28N 66°58' E 013°31'4 0.9
2018-Jul-02 12:16N 66°54' E 013°32'0 0.0
2018-Jul-02 09:54N 66°54' E 013°32'5 0.9
2018-Jul-02 04:19N 66°59' E 013°35'2 7.0
2018-Jul-02 04:00N 67°00' E 013°39'4 7.0
2018-Jul-02 03:29N 67°02' E 013°47'3 6.3
2018-Jul-02 03:00N 67°04' E 013°52'0 0.6
2018-Jul-02 02:30N 67°05' E 013°51'0 0.0
2018-Jul-02 02:00N 67°05' E 013°51'0 0.0
2018-Jul-02 01:30N 67°05' E 013°51'0 0.0
2018-Jul-02 01:00N 67°05' E 013°51'0 0.0
2018-Jul-02 00:27N 67°05' E 013°51'0 0.0
2018-Jul-02 00:00N 67°05' E 013°51'2 3.9
2018-Jul-01 23:30N 67°05' E 013°47'15 3.5
2018-Jul-01 19:08N 67°18' E 014°06'1 7.3
2018-Jul-01 19:00N 67°19' E 014°06'4 7.3
2018-Jul-01 18:30N 67°22' E 014°10'11 4.2
2018-Jul-01 15:48N 67°28' E 014°36'1 3.7
2018-Jul-01 15:30N 67°27' E 014°37'1 0.4
2018-Jul-01 12:06N 67°27' E 014°40'1 7.0
2018-Jul-01 12:00N 67°27' E 014°39'4 7.2
2018-Jul-01 11:30N 67°25' E 014°31'4 7.4
2018-Jul-01 11:00N 67°22' E 014°25'4 7.4
2018-Jul-01 10:30N 67°19' E 014°18'4 7.4
2018-Jul-01 10:00N 67°17' E 014°12'4 7.5
2018-Jul-01 09:30N 67°14' E 014°05'4 7.1
2018-Jul-01 09:00N 67°12' E 013°58'3 6.8
2018-Jul-01 08:30N 67°09' E 013°52'3 6.7
2018-Jul-01 08:00N 67°06' E 013°47'3 5.1
2018-Jul-01 07:30N 67°05' E 013°53'3 5.6
2018-Jul-01 06:55N 67°08' E 013°58'0 0.9
2018-Jul-01 06:29N 67°08' E 013°58'0 0.0
2018-Jul-01 05:54N 67°08' E 013°58'0 0.0
2018-Jul-01 05:23N 67°08' E 013°58'0 0.0
2018-Jul-01 04:48N 67°08' E 013°58'0 0.0
2018-Jul-01 04:24N 67°08' E 013°58'0 0.0
2018-Jul-01 03:59N 67°08' E 013°58'0 0.0
2018-Jul-01 03:30N 67°08' E 013°58'0 0.0
2018-Jul-01 02:59N 67°08' E 013°58'0 0.0
2018-Jul-01 02:29N 67°08' E 013°58'0 0.0
2018-Jul-01 01:14N 67°08' E 013°58'0 0.0
2018-Jul-01 00:56N 67°08' E 013°58'0 0.0
2018-Jul-01 00:26N 67°08' E 013°58'0 0.0
2018-Jun-30 23:56N 67°08' E 013°58'0 0.0
2018-Jun-30 23:02N 67°08' E 013°58'0 0.0
2018-Jun-30 16:50N 67°08' E 013°58'0 0.0
2018-Jun-30 16:14N 67°08' E 013°58'0 0.0
2018-Jun-30 15:56N 67°08' E 013°58'0 0.0
2018-Jun-30 15:26N 67°08' E 013°58'0 0.0
2018-Jun-30 14:44N 67°08' E 013°58'0 0.0
2018-Jun-30 14:26N 67°08' E 013°58'0 0.0
2018-Jun-30 13:44N 67°08' E 013°58'0 0.0
2018-Jun-30 13:26N 67°08' E 013°58'0 0.0
2018-Jun-30 12:38N 67°08' E 013°58'0 0.0
2018-Jun-30 12:29N 67°08' E 013°58'0 0.0
2018-Jun-30 11:53N 67°08' E 013°58'0 0.0
2018-Jun-30 11:29N 67°08' E 013°58'0 0.0
2018-Jun-30 10:53N 67°08' E 013°58'0 0.0
2018-Jun-30 10:23N 67°08' E 013°58'  
Track history (hours):
 
Tides and Currents Weather Stations Pressure Air Temp Water Temp Dewpoint Dewpoint Depression Visibility Wind Speed Wind Dir Waves Ship Positions

Svendsen Senior

Last reported at 2018-Jul-10 10:13 UTC. Time now 2018-Jul-18 23:32 UTC.
Position N 67°21' E 013°44'.
Warning: this ship's position is 8 days out of date.

Length 15 m.

Type: Fishing. MMSI: 257142520.

Date/timePositionNaut miles runAvg speedWind from/ knotsBaromVisibWave heightAir tempDewpointWater temp
2018-Jul-10 10:13N 67°21' E 013°44'2 6.8
2018-Jul-10 09:58N 67°20' E 013°45'5 7.0
2018-Jul-10 09:14N 67°15' E 013°49'2 7.3
2018-Jul-10 09:00N 67°13' E 013°50'3 6.9
2018-Jul-10 08:31N 67°11' E 013°56'2 4.3
2018-Jul-10 07:58N 67°09' E 013°60'0 0.1
2018-Jul-10 07:30N 67°09' E 013°60'0 0.3
2018-Jul-10 06:59N 67°09' E 013°59'0 0.7
2018-Jul-10 06:30N 67°09' E 014°00'1 0.6
2018-Jul-10 05:18N 67°08' E 013°58'0 0.2
2018-Jul-10 05:00N 67°08' E 013°58'0 0.1
2018-Jul-10 00:18N 67°08' E 013°58'2 5.6
2018-Jul-10 00:00N 67°09' E 014°01'3 6.0
2018-Jul-09 23:30N 67°10' E 014°07'1 2.8
2018-Jul-09 23:00N 67°11' E 014°11'1 1.9
2018-Jul-09 22:30N 67°11' E 014°13'0 0.5
2018-Jul-09 21:59N 67°11' E 014°13'1 2.2
2018-Jul-09 21:30N 67°11' E 014°11'1 1.2
2018-Jul-09 21:00N 67°11' E 014°12'2 4.4
2018-Jul-09 20:30N 67°10' E 014°07'2 4.5
2018-Jul-09 20:00N 67°10' E 014°01'2 3.9
2018-Jul-09 19:30N 67°08' E 014°01'3 5.4
2018-Jul-09 18:57N 67°05' E 014°04'3 4.2
2018-Jul-09 18:15N 67°07' E 013°58'1 4.3
2018-Jul-09 18:00N 67°06' E 013°56'3 6.5
2018-Jul-09 17:30N 67°03' E 013°53'3 6.4
2018-Jul-09 16:58N 66°60' E 013°50'2 5.2
2018-Jul-09 16:30N 66°59' E 013°44'2 5.0
2018-Jul-09 16:00N 66°57' E 013°40'2 3.1
2018-Jul-09 15:28N 66°58' E 013°36'1 1.0
2018-Jul-09 14:58N 66°58' E 013°38'1 2.4
2018-Jul-09 14:23N 66°57' E 013°41'2 4.4
2018-Jul-09 14:00N 66°58' E 013°45'0 0.1
2018-Jul-09 06:52N 66°58' E 013°46'1 2.2
2018-Jul-09 06:31N 66°57' E 013°44'1 1.7
2018-Jul-09 05:52N 66°58' E 013°42'1 2.0
2018-Jul-09 05:25N 66°57' E 013°44'13 1.5
2018-Jul-08 20:40N 67°09' E 013°59'0 0.0
2018-Jul-08 20:16N 67°09' E 013°59'1 1.0
2018-Jul-08 19:07N 67°10' E 013°58'1 5.7
2018-Jul-08 19:00N 67°10' E 013°59'1 0.4
2018-Jul-08 16:14N 67°10' E 014°02'0 0.7
2018-Jul-08 16:00N 67°10' E 014°01'0 0.1
2018-Jul-08 15:29N 67°10' E 014°01'1 2.6
2018-Jul-08 15:01N 67°09' E 014°00'2 0.0
2018-Jul-06 15:29N 67°07' E 013°57'0 0.5
2018-Jul-06 14:59N 67°07' E 013°57'0 0.8
2018-Jul-06 14:30N 67°07' E 013°57'0 0.7
2018-Jul-06 13:53N 67°07' E 013°56'1 0.8
2018-Jul-06 13:13N 67°07' E 013°57'1 1.8
2018-Jul-06 12:36N 67°08' E 013°58'0 4.2
2018-Jul-06 12:30N 67°08' E 013°59'0 0.0
2018-Jul-06 02:28N 67°08' E 013°58'0 0.0
2018-Jul-05 23:35N 67°08' E 013°58'0 0.0
2018-Jul-05 23:22N 67°08' E 013°58'0 0.0
2018-Jul-05 22:58N 67°08' E 013°58'0 0.0
2018-Jul-05 22:28N 67°08' E 013°58'0 0.0
2018-Jul-05 13:16N 67°08' E 013°58'0 0.0
2018-Jul-05 12:58N 67°08' E 013°58'0 0.0
2018-Jul-05 11:23N 67°08' E 013°58'1 1.4
2018-Jul-05 11:00N 67°08' E 013°58'0 0.7
2018-Jul-05 10:30N 67°08' E 013°58'2 4.9
2018-Jul-05 10:00N 67°05' E 013°60'2 4.7
2018-Jul-05 09:30N 67°03' E 014°01'2 3.2
2018-Jul-05 08:59N 67°03' E 013°56'5 5.6
2018-Jul-05 08:10N 67°02' E 013°45'1 6.3
2018-Jul-05 07:59N 67°02' E 013°43'3 5.7
2018-Jul-05 07:29N 67°00' E 013°37'3 5.3
2018-Jul-05 06:56N 66°58' E 013°32'2 1.9
2018-Jul-05 05:45N 66°56' E 013°31'0 0.3
2018-Jul-05 05:20N 66°56' E 013°31'1 1.1
2018-Jul-05 04:21N 66°55' E 013°31'1 0.4
2018-Jul-05 02:00N 66°54' E 013°32'2 0.3
2018-Jul-04 19:22N 66°56' E 013°31'2 0.1
2018-Jul-03 19:07N 66°57' E 013°29'1 5.8
2018-Jul-03 18:59N 66°58' E 013°30'3 5.9
2018-Jul-03 18:28N 66°57' E 013°38'2 3.0
2018-Jul-03 17:58N 66°58' E 013°34'2 0.1
2018-Jul-02 18:20N 66°57' E 013°29'0 0.1
2018-Jul-02 16:48N 66°57' E 013°29'1 2.5
2018-Jul-02 16:28N 66°58' E 013°31'4 0.9
2018-Jul-02 12:16N 66°54' E 013°32'0 0.0
2018-Jul-02 09:54N 66°54' E 013°32'5 0.9
2018-Jul-02 04:19N 66°59' E 013°35'2 7.0
2018-Jul-02 04:00N 67°00' E 013°39'4 7.0
2018-Jul-02 03:29N 67°02' E 013°47'3 6.3
2018-Jul-02 03:00N 67°04' E 013°52'0 0.6
2018-Jul-02 02:30N 67°05' E 013°51'0 0.0
2018-Jul-02 02:00N 67°05' E 013°51'0 0.0
2018-Jul-02 01:30N 67°05' E 013°51'0 0.0
2018-Jul-02 01:00N 67°05' E 013°51'0 0.0
2018-Jul-02 00:27N 67°05' E 013°51'0 0.0
2018-Jul-02 00:00N 67°05' E 013°51'2 3.9
2018-Jul-01 23:30N 67°05' E 013°47'15 3.5
2018-Jul-01 19:08N 67°18' E 014°06'1 7.3
2018-Jul-01 19:00N 67°19' E 014°06'4 7.3
2018-Jul-01 18:30N 67°22' E 014°10'11 4.2
2018-Jul-01 15:48N 67°28' E 014°36'1 3.7
2018-Jul-01 15:30N 67°27' E 014°37'1 0.4
2018-Jul-01 12:06N 67°27' E 014°40'1 7.0
2018-Jul-01 12:00N 67°27' E 014°39'4 7.2
2018-Jul-01 11:30N 67°25' E 014°31'4 7.4
2018-Jul-01 11:00N 67°22' E 014°25'4 7.4
2018-Jul-01 10:30N 67°19' E 014°18'4 7.4
2018-Jul-01 10:00N 67°17' E 014°12'4 7.5
2018-Jul-01 09:30N 67°14' E 014°05'4 7.1
2018-Jul-01 09:00N 67°12' E 013°58'3 6.8
2018-Jul-01 08:30N 67°09' E 013°52'3 6.7
2018-Jul-01 08:00N 67°06' E 013°47'3 5.1
2018-Jul-01 07:30N 67°05' E 013°53'3 5.6
2018-Jul-01 06:55N 67°08' E 013°58'0 0.9
2018-Jul-01 06:29N 67°08' E 013°58'0 0.0
2018-Jul-01 05:54N 67°08' E 013°58'0 0.0
2018-Jul-01 05:23N 67°08' E 013°58'0 0.0
2018-Jul-01 04:48N 67°08' E 013°58'0 0.0
2018-Jul-01 04:24N 67°08' E 013°58'0 0.0
2018-Jul-01 03:59N 67°08' E 013°58'0 0.0
2018-Jul-01 03:30N 67°08' E 013°58'0 0.0
2018-Jul-01 02:59N 67°08' E 013°58'0 0.0
2018-Jul-01 02:29N 67°08' E 013°58'0 0.0
2018-Jul-01 01:14N 67°08' E 013°58'0 0.0
2018-Jul-01 00:56N 67°08' E 013°58'0 0.0
2018-Jul-01 00:26N 67°08' E 013°58'0 0.0
2018-Jun-30 23:56N 67°08' E 013°58'0 0.0
2018-Jun-30 23:02N 67°08' E 013°58'0 0.0
2018-Jun-30 16:50N 67°08' E 013°58'0 0.0
2018-Jun-30 16:14N 67°08' E 013°58'0 0.0
2018-Jun-30 15:56N 67°08' E 013°58'0 0.0
2018-Jun-30 15:26N 67°08' E 013°58'0 0.0
2018-Jun-30 14:44N 67°08' E 013°58'0 0.0
2018-Jun-30 14:26N 67°08' E 013°58'0 0.0
2018-Jun-30 13:44N 67°08' E 013°58'0 0.0
2018-Jun-30 13:26N 67°08' E 013°58'0 0.0
2018-Jun-30 12:38N 67°08' E 013°58'0 0.0
2018-Jun-30 12:29N 67°08' E 013°58'0 0.0
2018-Jun-30 11:53N 67°08' E 013°58'0 0.0
2018-Jun-30 11:29N 67°08' E 013°58'0 0.0
2018-Jun-30 10:53N 67°08' E 013°58'0 0.0
2018-Jun-30 10:23N 67°08' E 013°58'  

Dump ship's entire track history